Time;durP1;ratioP1;P1;durP2;ratioP2;P2;SDS_P1;SDS_P2;PMS_P1;PMS_P2;Temp;Humidity;BMP_temperature;BMP_pressure;BME280_temperature;BME280_humidity;BME280_pressure;Samples;Min_cycle;Max_cycle;Signal;HPM_P1;HPM_P2
2022/01/18 00:02:24;;;;;;;13.38;4.57;;;;;;;;;;4991455;28;20042;-74
2022/01/18 00:04:50;;;;;;;12.98;4.75;;;;;;;;;;4992749;28;20046;-74
2022/01/18 00:07:16;;;;;;;16.25;5.28;;;;;;;;;;4975070;28;20130;-74
2022/01/18 00:09:42;;;;;;;14.73;4.72;;;;;;;;;;4991820;28;20045;-74
2022/01/18 00:15:29;;;;;;;16.27;4.68;;;;;;;;;;4991134;28;20419;-74
2022/01/18 00:20:42;;;;;;;16.25;4.85;;;;;;;;;;4991108;28;20054;-74
2022/01/18 00:23:09;;;;;;;13.45;4.43;;;;;;;;;;4992322;28;20046;-73
2022/01/18 00:25:38;;;;;;;18.25;4.95;;;;;;;;;;4992538;28;20046;-74
2022/01/18 00:28:06;;;;;;;14.52;4.38;;;;;;;;;;4991560;28;20508;-74
2022/01/18 00:36:23;;;;;;;12.68;4.40;;;;;;;;;;4973463;28;20061;-74
2022/01/18 00:38:49;;;;;;;15.00;4.22;;;;;;;;;;4991771;28;20788;-74
2022/01/18 00:41:17;;;;;;;14.27;4.55;;;;;;;;;;4990603;28;20055;-74
2022/01/18 00:43:43;;;;;;;16.85;5.10;;;;;;;;;;4991429;28;20551;-74
2022/01/18 00:46:11;;;;;;;12.48;4.35;;;;;;;;;;4991727;28;20049;-76
2022/01/18 00:48:37;;;;;;;13.07;4.85;;;;;;;;;;4992301;28;20054;-74
2022/01/18 00:51:05;;;;;;;15.90;5.07;;;;;;;;;;4991710;28;20042;-74
2022/01/18 00:53:31;;;;;;;15.27;4.03;;;;;;;;;;4991068;28;20050;-74
2022/01/18 00:58:36;;;;;;;13.15;3.78;;;;;;;;;;4991827;28;20485;-74
2022/01/18 01:01:03;;;;;;;14.00;3.95;;;;;;;;;;4990486;28;20121;-77
2022/01/18 01:03:29;;;;;;;18.10;4.50;;;;;;;;;;4991236;28;20077;-77
2022/01/18 01:05:55;;;;;;;16.40;4.30;;;;;;;;;;4991602;28;20046;-77
2022/01/18 01:08:21;;;;;;;14.63;3.90;;;;;;;;;;4991364;28;20101;-77
2022/01/18 01:10:48;;;;;;;16.40;4.20;;;;;;;;;;4991502;28;20138;-77
2022/01/18 01:13:14;;;;;;;14.05;4.35;;;;;;;;;;4990942;28;20047;-76
2022/01/18 01:16:02;;;;;;;15.05;4.53;;;;;;;;;;4991360;28;20497;-76
2022/01/18 01:34:46;;;;;;;14.60;3.92;;;;;;;;;;4991033;28;20046;-76
2022/01/18 01:44:52;;;;;;;12.32;3.85;;;;;;;;;;4989332;28;20492;-76
2022/01/18 01:47:21;;;;;;;15.20;4.25;;;;;;;;;;4990222;28;20082;-76
2022/01/18 01:49:49;;;;;;;14.27;3.35;;;;;;;;;;4990957;28;20417;-75
2022/01/18 01:52:15;;;;;;;10.50;3.70;;;;;;;;;;4988850;28;20042;-75
2022/01/18 01:54:41;;;;;;;12.38;3.53;;;;;;;;;;4990611;28;20531;-75
2022/01/18 01:57:07;;;;;;;13.38;3.80;;;;;;;;;;4990675;28;20085;-74
2022/01/18 01:59:34;;;;;;;19.80;4.43;;;;;;;;;;4989809;28;20057;-74
2022/01/18 02:02:00;;;;;;;13.82;3.90;;;;;;;;;;4989239;28;20057;-74
2022/01/18 02:04:26;;;;;;;13.45;3.78;;;;;;;;;;4973071;28;20049;-75
2022/01/18 02:06:52;;;;;;;13.27;3.33;;;;;;;;;;4991170;28;20046;-74
2022/01/18 02:09:18;;;;;;;17.17;3.78;;;;;;;;;;4990614;28;20077;-76
2022/01/18 02:11:46;;;;;;;14.07;3.90;;;;;;;;;;4989852;28;20058;-76
2022/01/18 02:14:17;;;;;;;13.45;3.95;;;;;;;;;;4989833;28;20423;-76
2022/01/18 02:22:13;;;;;;;14.05;3.78;;;;;;;;;;4990073;28;20140;-75
2022/01/18 02:24:39;;;;;;;15.20;3.78;;;;;;;;;;4990168;28;20416;-77
2022/01/18 02:27:05;;;;;;;13.75;3.80;;;;;;;;;;4989451;28;20054;-78
2022/01/18 02:29:31;;;;;;;13.32;3.42;;;;;;;;;;4989745;28;20046;-76
2022/01/18 02:31:58;;;;;;;22.90;4.03;;;;;;;;;;4988866;28;20101;-76
2022/01/18 02:34:24;;;;;;;13.20;3.30;;;;;;;;;;4990206;28;20122;-74
2022/01/18 02:36:53;;;;;;;12.32;3.03;;;;;;;;;;4987970;28;20129;-75
2022/01/18 02:39:20;;;;;;;14.38;3.33;;;;;;;;;;4989681;28;20051;-74
2022/01/18 02:41:52;;;;;;;15.10;3.35;;;;;;;;;;4989730;28;20074;-75
2022/01/18 02:44:18;;;;;;;12.98;3.20;;;;;;;;;;4989187;28;20061;-75
2022/01/18 02:46:44;;;;;;;13.98;3.92;;;;;;;;;;4989503;28;20062;-75
2022/01/18 02:49:10;;;;;;;11.77;3.70;;;;;;;;;;4989277;28;20112;-75
2022/01/18 02:51:36;;;;;;;10.20;3.17;;;;;;;;;;4972357;28;20057;-75
2022/01/18 02:54:02;;;;;;;12.60;3.10;;;;;;;;;;4989256;28;20434;-74
2022/01/18 02:56:46;;;;;;;10.80;2.72;;;;;;;;;;4989519;28;20806;-74
2022/01/18 02:59:19;;;;;;;10.77;3.05;;;;;;;;;;4989235;28;20468;-74
2022/01/18 03:04:30;;;;;;;11.68;3.00;;;;;;;;;;4989259;28;20050;-75
2022/01/18 03:06:56;;;;;;;8.70;2.60;;;;;;;;;;4988001;28;20044;-75
2022/01/18 03:09:22;;;;;;;9.80;2.60;;;;;;;;;;4987838;28;20080;-75
2022/01/18 03:11:48;;;;;;;11.95;3.20;;;;;;;;;;4988460;28;20140;-74
2022/01/18 03:14:14;;;;;;;8.73;2.55;;;;;;;;;;4988026;28;20046;-75
2022/01/18 03:16:40;;;;;;;12.68;3.10;;;;;;;;;;4971910;28;20043;-74
2022/01/18 03:19:06;;;;;;;9.10;2.33;;;;;;;;;;4988831;28;20053;-75
2022/01/18 03:21:33;;;;;;;10.57;2.75;;;;;;;;;;4989118;28;20069;-77
2022/01/18 03:24:12;;;;;;;7.88;2.30;;;;;;;;;;4993436;28;20054;-76
2022/01/18 03:28:04;;;;;;;10.45;2.22;;;;;;;;;;4995756;28;20109;-76
2022/01/18 03:29:26;;;;;;;10.75;3.35;;;;;;;;;;4994136;28;20052;-76
2022/01/18 03:31:52;;;;;;;9.07;2.45;;;;;;;;;;4994324;28;20053;-76
2022/01/18 03:34:18;;;;;;;8.52;2.28;;;;;;;;;;4995700;28;20068;-76
2022/01/18 03:36:44;;;;;;;9.95;2.80;;;;;;;;;;4995779;28;20412;-76
2022/01/18 03:39:11;;;;;;;14.38;2.75;;;;;;;;;;4995353;28;20552;-77
2022/01/18 03:41:37;;;;;;;9.35;2.25;;;;;;;;;;4993767;28;20077;-76
2022/01/18 03:44:03;;;;;;;8.25;2.35;;;;;;;;;;4995731;28;20046;-77
2022/01/18 03:46:31;;;;;;;8.00;2.40;;;;;;;;;;4978167;28;20053;-77
2022/01/18 03:48:58;;;;;;;8.60;2.60;;;;;;;;;;4995198;28;20057;-77
2022/01/18 03:51:24;;;;;;;8.90;2.30;;;;;;;;;;4995136;28;20484;-77
2022/01/18 03:53:51;;;;;;;7.18;2.08;;;;;;;;;;4995488;28;20124;-77
2022/01/18 03:56:17;;;;;;;5.65;1.80;;;;;;;;;;4995129;28;20108;-77
2022/01/18 03:58:43;;;;;;;9.60;1.90;;;;;;;;;;4995348;28;20615;-77
2022/01/18 04:01:10;;;;;;;7.88;2.33;;;;;;;;;;4995091;28;20427;-77
2022/01/18 04:03:36;;;;;;;8.13;2.65;;;;;;;;;;4995806;28;20049;-77
2022/01/18 04:06:02;;;;;;;10.20;2.38;;;;;;;;;;4995108;28;20057;-77
2022/01/18 04:08:28;;;;;;;10.30;2.72;;;;;;;;;;4995395;28;20133;-77
2022/01/18 04:10:54;;;;;;;9.13;2.30;;;;;;;;;;4994910;28;20050;-77
2022/01/18 04:13:20;;;;;;;9.40;2.60;;;;;;;;;;4994848;28;20054;-77
2022/01/18 04:15:46;;;;;;;6.97;1.73;;;;;;;;;;4995358;28;20046;-75
2022/01/18 04:18:23;;;;;;;7.57;1.75;;;;;;;;;;4995454;28;20068;-76
2022/01/18 04:28:55;;;;;;;8.88;2.58;;;;;;;;;;4995186;28;20082;-76
2022/01/18 04:31:22;;;;;;;6.82;1.90;;;;;;;;;;4995023;28;20069;-76
2022/01/18 04:33:51;;;;;;;9.65;2.20;;;;;;;;;;4994570;28;20050;-76
2022/01/18 04:36:18;;;;;;;8.55;2.22;;;;;;;;;;4991347;28;20214;-76
2022/01/18 04:38:44;;;;;;;7.72;2.30;;;;;;;;;;4992218;28;20077;-77
2022/01/18 04:41:14;;;;;;;9.43;2.20;;;;;;;;;;4991503;28;20050;-77
2022/01/18 04:48:58;;;;;;;6.55;1.80;;;;;;;;;;4990856;28;20382;-74
2022/01/18 04:51:26;;;;;;;6.95;2.30;;;;;;;;;;4991947;28;20074;-76
2022/01/18 04:53:58;;;;;;;7.53;1.98;;;;;;;;;;4991603;28;20054;-76
2022/01/18 04:59:00;;;;;;;11.35;1.90;;;;;;;;;;4991190;28;20054;-75
2022/01/18 05:01:26;;;;;;;7.50;2.13;;;;;;;;;;4991538;28;20136;-75
2022/01/18 05:03:52;;;;;;;6.88;1.80;;;;;;;;;;4974502;28;20465;-74
2022/01/18 05:06:19;;;;;;;7.93;1.98;;;;;;;;;;4991607;28;20042;-74
2022/01/18 05:08:46;;;;;;;7.70;1.92;;;;;;;;;;4991324;28;20124;-74
2022/01/18 05:11:15;;;;;;;5.13;1.77;;;;;;;;;;4991434;28;20053;-74
2022/01/18 05:23:55;;;;;;;;;;;;;;;;;;4990786;28;20058;-74
2022/01/18 05:26:21;;;;;;;5.53;1.55;;;;;;;;;;4990571;28;19949;-74
2022/01/18 05:28:47;;;;;;;3.63;1.30;;;;;;;;;;4991210;28;20042;-74
2022/01/18 05:31:13;;;;;;;6.00;1.77;;;;;;;;;;4989782;28;20497;-74
2022/01/18 05:33:41;;;;;;;6.20;1.77;;;;;;;;;;4990950;28;20042;-74
2022/01/18 05:36:07;;;;;;;8.10;1.98;;;;;;;;;;4991247;28;20057;-74
2022/01/18 05:38:35;;;;;;;8.13;1.75;;;;;;;;;;4991018;28;20046;-74
2022/01/18 05:41:01;;;;;;;9.63;1.80;;;;;;;;;;4989128;28;20054;-74
2022/01/18 05:43:27;;;;;;;4.25;1.25;;;;;;;;;;4990950;28;20038;-74
2022/01/18 05:45:53;;;;;;;5.32;1.23;;;;;;;;;;4990768;28;20125;-74
2022/01/18 05:48:19;;;;;;;8.32;1.52;;;;;;;;;;4990676;28;20141;-74
2022/01/18 05:50:45;;;;;;;5.63;1.60;;;;;;;;;;4990744;28;20050;-74
2022/01/18 05:53:11;;;;;;;4.75;1.52;;;;;;;;;;4973122;28;20047;-74
2022/01/18 05:55:37;;;;;;;7.43;2.25;;;;;;;;;;4990744;28;20050;-74
2022/01/18 05:58:04;;;;;;;4.85;1.20;;;;;;;;;;4990580;28;20046;-74
2022/01/18 06:00:31;;;;;;;6.18;1.52;;;;;;;;;;4990642;28;20046;-74
2022/01/18 06:08:08;;;;;;;5.75;1.20;;;;;;;;;;4990257;28;20072;-76
2022/01/18 06:10:35;;;;;;;4.88;1.38;;;;;;;;;;4989009;28;20519;-74
2022/01/18 06:13:02;;;;;;;6.30;1.30;;;;;;;;;;4990350;28;20132;-74
2022/01/18 06:15:31;;;;;;;5.70;1.30;;;;;;;;;;4989682;28;20046;-73
2022/01/18 06:17:58;;;;;;;5.70;1.40;;;;;;;;;;4990561;28;20043;-74
2022/01/18 06:20:24;;;;;;;6.55;1.60;;;;;;;;;;4990018;28;20072;-74
2022/01/18 06:22:53;;;;;;;4.70;1.30;;;;;;;;;;4990022;28;20049;-74
2022/01/18 06:25:19;;;;;;;5.50;1.30;;;;;;;;;;4990058;28;20053;-74
2022/01/18 06:27:46;;;;;;;4.97;1.35;;;;;;;;;;4989464;28;20526;-74
2022/01/18 06:30:12;;;;;;;5.22;1.23;;;;;;;;;;4989746;28;20038;-74
2022/01/18 06:32:38;;;;;;;4.78;1.42;;;;;;;;;;4989937;28;20046;-74
2022/01/18 06:35:05;;;;;;;6.32;1.58;;;;;;;;;;4989912;28;20132;-75
2022/01/18 06:37:31;;;;;;;5.30;1.33;;;;;;;;;;4989808;28;20057;-75
2022/01/18 06:39:59;;;;;;;5.95;1.20;;;;;;;;;;4989389;28;20448;-74
2022/01/18 06:42:25;;;;;;;4.82;1.35;;;;;;;;;;4989714;28;20431;-75
2022/01/18 06:44:51;;;;;;;6.20;1.42;;;;;;;;;;4989795;28;20048;-75
2022/01/18 06:47:18;;;;;;;5.88;1.38;;;;;;;;;;4989012;28;20054;-75
2022/01/18 06:49:44;;;;;;;6.28;1.35;;;;;;;;;;4989700;28;20042;-74
2022/01/18 06:52:10;;;;;;;4.03;1.30;;;;;;;;;;4989606;28;20133;-74
2022/01/18 06:54:36;;;;;;;3.90;1.23;;;;;;;;;;4989674;28;20038;-75
2022/01/18 06:57:02;;;;;;;3.63;0.95;;;;;;;;;;4989083;28;20049;-74
2022/01/18 06:59:28;;;;;;;4.78;1.08;;;;;;;;;;4988746;28;20508;-75
2022/01/18 07:01:54;;;;;;;6.93;1.42;;;;;;;;;;4989349;28;20042;-76
2022/01/18 07:04:20;;;;;;;11.02;1.55;;;;;;;;;;4989075;28;20093;-74
2022/01/18 07:06:46;;;;;;;6.43;1.52;;;;;;;;;;4989612;28;20539;-74
2022/01/18 07:09:22;;;;;;;3.00;1.08;;;;;;;;;;4989371;28;20137;-74
2022/01/18 07:11:48;;;;;;;6.43;1.50;;;;;;;;;;4989222;28;20042;-74
2022/01/18 07:14:14;;;;;;;9.15;1.10;;;;;;;;;;4989402;28;20050;-74
2022/01/18 07:16:40;;;;;;;6.97;1.15;;;;;;;;;;4988013;28;20082;-73
2022/01/18 07:19:06;;;;;;;4.95;1.27;;;;;;;;;;4989235;28;20038;-74
2022/01/18 07:21:32;;;;;;;8.07;1.48;;;;;;;;;;4989031;28;20061;-73
2022/01/18 07:24:17;;;;;;;5.78;1.35;;;;;;;;;;4988711;28;20053;-73
2022/01/18 07:26:43;;;;;;;6.57;1.38;;;;;;;;;;4989418;28;20069;-74
2022/01/18 07:29:10;;;;;;;6.72;1.35;;;;;;;;;;4989221;28;20112;-73
2022/01/18 07:31:36;;;;;;;4.72;1.25;;;;;;;;;;4988868;28;20077;-74
2022/01/18 07:34:02;;;;;;;5.65;1.27;;;;;;;;;;4989013;28;20050;-74
2022/01/18 07:36:28;;;;;;;5.03;1.10;;;;;;;;;;4988099;28;20053;-73
2022/01/18 07:38:55;;;;;;;4.93;1.10;;;;;;;;;;4989177;28;20038;-73
2022/01/18 07:41:22;;;;;;;5.07;1.10;;;;;;;;;;4988296;28;20124;-73
2022/01/18 07:43:48;;;;;;;8.90;1.27;;;;;;;;;;4989152;28;20042;-74
2022/01/18 07:46:14;;;;;;;6.45;1.40;;;;;;;;;;4988891;28;20046;-74
2022/01/18 07:48:40;;;;;;;3.72;1.08;;;;;;;;;;4989194;28;20104;-74
2022/01/18 07:51:06;;;;;;;5.57;1.23;;;;;;;;;;4987988;28;20444;-75
2022/01/18 07:53:32;;;;;;;4.65;1.38;;;;;;;;;;4987172;28;20065;-74
2022/01/18 07:55:59;;;;;;;7.78;1.40;;;;;;;;;;4987746;28;20043;-74
2022/01/18 07:58:25;;;;;;;4.57;1.20;;;;;;;;;;4988901;28;20074;-74
2022/01/18 08:00:51;;;;;;;8.23;1.65;;;;;;;;;;4988937;28;20050;-74
2022/01/18 08:03:17;;;;;;;7.07;1.40;;;;;;;;;;4987973;28;20097;-73
2022/01/18 08:05:43;;;;;;;4.30;1.27;;;;;;;;;;4989008;28;20066;-74
2022/01/18 08:08:09;;;;;;;7.18;1.25;;;;;;;;;;4988996;28;20042;-74
2022/01/18 08:10:35;;;;;;;6.93;1.30;;;;;;;;;;4990544;28;20097;-74
2022/01/18 08:13:03;;;;;;;4.20;1.48;;;;;;;;;;4992870;28;20090;-74
2022/01/18 08:15:38;;;;;;;6.85;1.38;;;;;;;;;;4992591;28;20153;-74
2022/01/18 08:18:06;;;;;;;5.20;1.35;;;;;;;;;;4991516;28;20089;-74
2022/01/18 08:20:32;;;;;;;3.83;1.38;;;;;;;;;;4990721;28;20527;-74
2022/01/18 08:22:58;;;;;;;5.05;1.42;;;;;;;;;;4992709;28;20046;-73
2022/01/18 08:25:24;;;;;;;5.95;1.75;;;;;;;;;;4991159;28;20129;-74
2022/01/18 08:27:50;;;;;;;4.40;1.42;;;;;;;;;;4992774;28;20054;-74
2022/01/18 08:30:17;;;;;;;5.22;1.35;;;;;;;;;;4992373;28;20097;-74
2022/01/18 08:32:43;;;;;;;4.65;1.15;;;;;;;;;;4991968;28;20049;-74
2022/01/18 08:35:10;;;;;;;5.18;1.27;;;;;;;;;;4992236;28;20093;-73
2022/01/18 08:37:36;;;;;;;11.20;1.40;;;;;;;;;;4991357;28;20045;-72
2022/01/18 08:40:02;;;;;;;5.20;1.30;;;;;;;;;;4992343;28;20054;-73
2022/01/18 08:42:28;;;;;;;7.50;1.30;;;;;;;;;;4990313;28;20050;-74
2022/01/18 08:44:55;;;;;;;4.30;1.23;;;;;;;;;;4992479;28;20042;-74
2022/01/18 08:47:24;;;;;;;4.22;1.20;;;;;;;;;;4991994;28;20050;-73
2022/01/18 08:49:50;;;;;;;5.15;1.20;;;;;;;;;;4991953;28;20058;-74
2022/01/18 08:52:16;;;;;;;5.57;1.33;;;;;;;;;;4991910;28;20054;-74
2022/01/18 08:54:43;;;;;;;5.57;1.65;;;;;;;;;;4992116;28;20054;-74
2022/01/18 08:57:10;;;;;;;7.95;1.40;;;;;;;;;;4991420;28;20059;-73
2022/01/18 08:59:36;;;;;;;3.85;0.80;;;;;;;;;;4991902;28;20053;-74
2022/01/18 09:02:06;;;;;;;6.53;1.23;;;;;;;;;;4991891;28;20057;-74
2022/01/18 09:04:33;;;;;;;6.20;1.60;;;;;;;;;;4991724;28;20053;-73
2022/01/18 09:07:02;;;;;;;7.15;1.35;;;;;;;;;;4991733;28;20086;-74
2022/01/18 09:09:28;;;;;;;8.93;1.33;;;;;;;;;;4991528;28;20089;-74
2022/01/18 09:11:54;;;;;;;6.60;1.58;;;;;;;;;;4991792;28;20049;-73
2022/01/18 09:14:20;;;;;;;4.25;1.15;;;;;;;;;;4990308;28;20046;-75
2022/01/18 09:16:46;;;;;;;5.72;1.40;;;;;;;;;;4990176;28;20061;-77
2022/01/18 09:19:13;;;;;;;7.88;1.30;;;;;;;;;;4991500;28;20038;-76
2022/01/18 09:21:39;;;;;;;6.10;1.02;;;;;;;;;;4990878;28;20555;-76
2022/01/18 09:24:05;;;;;;;3.97;1.33;;;;;;;;;;4991473;28;20487;-76
2022/01/18 09:26:31;;;;;;;5.65;1.45;;;;;;;;;;4991448;28;20061;-76
2022/01/18 09:28:57;;;;;;;5.35;1.10;;;;;;;;;;4989971;28;20050;-76
2022/01/18 09:31:23;;;;;;;7.20;1.40;;;;;;;;;;4990886;28;20046;-75
2022/01/18 09:33:49;;;;;;;8.15;1.10;;;;;;;;;;4991286;28;20053;-76
2022/01/18 09:36:15;;;;;;;3.65;0.82;;;;;;;;;;4991070;28;20125;-76
2022/01/18 09:38:41;;;;;;;5.15;1.40;;;;;;;;;;4990155;28;20046;-76
2022/01/18 09:41:11;;;;;;;4.82;1.25;;;;;;;;;;4990952;28;20049;-76
2022/01/18 09:43:38;;;;;;;3.38;1.00;;;;;;;;;;4991182;28;20046;-75
2022/01/18 09:46:04;;;;;;;2.70;1.10;;;;;;;;;;4990713;28;20053;-77
2022/01/18 09:48:30;;;;;;;3.85;1.00;;;;;;;;;;4991077;28;20164;-75
2022/01/18 09:50:58;;;;;;;3.65;1.17;;;;;;;;;;4991109;28;20423;-77
2022/01/18 09:53:25;;;;;;;3.53;0.93;;;;;;;;;;4973684;28;20822;-76
2022/01/18 09:55:53;;;;;;;4.03;1.00;;;;;;;;;;4971039;28;20610;-75
2022/01/18 09:58:19;;;;;;;4.78;1.25;;;;;;;;;;4970025;28;20059;-74
2022/01/18 10:00:46;;;;;;;3.72;1.17;;;;;;;;;;4950311;28;20047;-75
2022/01/18 10:03:29;;;;;;;4.40;1.25;;;;;;;;;;4951912;28;20073;-74
2022/01/18 10:05:56;;;;;;;3.95;1.10;;;;;;;;;;4957090;28;20500;-77
2022/01/18 10:08:22;;;;;;;3.60;1.10;;;;;;;;;;4989795;28;20432;-75
2022/01/18 10:10:53;;;;;;;4.22;1.00;;;;;;;;;;4989422;28;20057;-74
2022/01/18 10:13:32;;;;;;;5.18;1.10;;;;;;;;;;4975784;28;20046;-77
2022/01/18 10:15:58;;;;;;;;;;;;;;;;;;4989935;28;20400;-76
2022/01/18 10:18:41;;;;;;;3.33;0.98;;;;;;;;;;4990567;28;19929;-75
2022/01/18 10:21:08;;;;;;;4.15;1.30;;;;;;;;;;4989305;28;20062;-76
2022/01/18 10:23:35;;;;;;;3.00;0.98;;;;;;;;;;4989968;28;20137;-77
2022/01/18 10:26:22;;;;;;;3.30;0.93;;;;;;;;;;4990199;28;20157;-77
2022/01/18 10:28:58;;;;;;;4.85;1.20;;;;;;;;;;4989555;28;20042;-77
2022/01/18 10:31:28;;;;;;;3.15;1.00;;;;;;;;;;4989813;28;20042;-77
2022/01/18 10:34:10;;;;;;;;;;;;;;;;;;4989701;28;20057;-76
2022/01/18 10:36:50;;;;;;;3.63;1.08;;;;;;;;;;4989761;28;19933;-76
2022/01/18 10:39:21;;;;;;;3.53;1.02;;;;;;;;;;4988689;28;20039;-76
2022/01/18 10:41:47;;;;;;;5.80;1.30;;;;;;;;;;4989909;28;20058;-77
2022/01/18 10:44:14;;;;;;;4.47;1.50;;;;;;;;;;4973732;28;20589;-77
2022/01/18 10:46:44;;;;;;;4.38;1.08;;;;;;;;;;4970672;28;20067;-76
2022/01/18 10:49:11;;;;;;;3.42;1.30;;;;;;;;;;4969171;28;20456;-76
2022/01/18 10:51:39;;;;;;;3.22;1.10;;;;;;;;;;4969579;28;20086;-76
2022/01/18 10:54:06;;;;;;;3.28;0.95;;;;;;;;;;4969038;28;20051;-77
2022/01/18 10:56:49;;;;;;;4.43;1.17;;;;;;;;;;4970630;28;20042;-75
2022/01/18 10:59:22;;;;;;;3.92;0.93;;;;;;;;;;4968910;28;20138;-76
2022/01/18 11:02:10;;;;;;;4.35;1.08;;;;;;;;;;4969887;28;20142;-77
2022/01/18 11:04:36;;;;;;;3.58;1.27;;;;;;;;;;4970442;28;20126;-76
2022/01/18 11:07:04;;;;;;;2.97;0.77;;;;;;;;;;4969220;28;20051;-75
2022/01/18 11:09:30;;;;;;;3.78;1.10;;;;;;;;;;4969728;28;20080;-77
2022/01/18 11:11:56;;;;;;;5.30;1.50;;;;;;;;;;4969883;28;20039;-78
2022/01/18 11:14:24;;;;;;;4.78;1.45;;;;;;;;;;4970815;28;20508;-77
2022/01/18 11:16:51;;;;;;;3.90;1.00;;;;;;;;;;4979461;28;20069;-78
2022/01/18 11:21:46;;;;;;;5.10;1.30;;;;;;;;;;4968738;28;20417;-77
2022/01/18 11:24:14;;;;;;;3.35;0.95;;;;;;;;;;4969083;28;20047;-77
2022/01/18 11:26:42;;;;;;;3.17;0.90;;;;;;;;;;4970215;28;20382;-77
2022/01/18 11:29:08;;;;;;;3.60;1.05;;;;;;;;;;4968826;28;20126;-78
2022/01/18 11:31:34;;;;;;;3.20;1.00;;;;;;;;;;4967972;28;20043;-77
2022/01/18 11:34:01;;;;;;;4.13;0.95;;;;;;;;;;4968090;28;20039;-77
2022/01/18 11:36:29;;;;;;;3.63;1.00;;;;;;;;;;4968696;28;20085;-78
2022/01/18 11:38:58;;;;;;;3.97;1.02;;;;;;;;;;4969887;28;20588;-79
2022/01/18 11:41:28;;;;;;;3.80;1.10;;;;;;;;;;4970079;28;20488;-79
2022/01/18 11:43:59;;;;;;;3.55;1.20;;;;;;;;;;4968966;28;20291;-80
2022/01/18 11:46:40;;;;;;;5.00;1.15;;;;;;;;;;4973217;28;20119;-78
2022/01/18 11:49:23;;;;;;;3.55;1.23;;;;;;;;;;4973605;28;20460;-80
2022/01/18 11:51:55;;;;;;;4.97;1.30;;;;;;;;;;4972700;28;20105;-76
2022/01/18 11:54:29;;;;;;;3.00;1.08;;;;;;;;;;4973225;28;20090;-76
2022/01/18 11:56:56;;;;;;;3.15;1.10;;;;;;;;;;4974056;28;20122;-77
2022/01/18 11:59:26;;;;;;;4.25;1.25;;;;;;;;;;4973313;28;20070;-76
2022/01/18 12:01:59;;;;;;;3.67;0.98;;;;;;;;;;4972201;28;20129;-75
2022/01/18 12:07:11;;;;;;;3.45;1.00;;;;;;;;;;4972617;28;20043;-73
2022/01/18 12:09:41;;;;;;;2.72;0.85;;;;;;;;;;4971185;28;20533;-76
2022/01/18 12:12:26;;;;;;;3.42;1.10;;;;;;;;;;4971648;28;20047;-75
2022/01/18 12:14:52;;;;;;;3.78;1.17;;;;;;;;;;4963025;28;20039;-74
2022/01/18 12:17:18;;;;;;;5.20;1.25;;;;;;;;;;4971155;28;20074;-74
2022/01/18 12:19:45;;;;;;;4.20;1.00;;;;;;;;;;4971759;28;20054;-74
2022/01/18 12:22:12;;;;;;;3.25;0.93;;;;;;;;;;4973128;28;20126;-75
2022/01/18 12:24:41;;;;;;;3.30;0.90;;;;;;;;;;4972836;28;20480;-73
2022/01/18 12:27:26;;;;;;;2.90;0.75;;;;;;;;;;4972602;28;20054;-75
2022/01/18 12:30:14;;;;;;;3.10;0.95;;;;;;;;;;4972258;28;20452;-71
2022/01/18 12:32:56;;;;;;;4.90;1.07;;;;;;;;;;4973131;28;20046;-73
2022/01/18 12:35:25;;;;;;;3.97;1.35;;;;;;;;;;4973235;28;20282;-73
2022/01/18 12:37:51;;;;;;;3.72;1.13;;;;;;;;;;4971776;28;20050;-73
2022/01/18 12:40:24;;;;;;;3.00;1.20;;;;;;;;;;4972656;28;20413;-74
2022/01/18 12:45:26;;;;;;;5.13;1.63;;;;;;;;;;4973071;28;21167;-75
2022/01/18 12:48:00;;;;;;;6.35;1.48;;;;;;;;;;4972686;28;20055;-76
2022/01/18 12:50:31;;;;;;;13.75;2.22;;;;;;;;;;4972943;28;20098;-75
2022/01/18 12:52:59;;;;;;;11.15;1.45;;;;;;;;;;4970295;28;20368;-75
2022/01/18 12:55:30;;;;;;;4.65;0.93;;;;;;;;;;4971273;28;20058;-75
2022/01/18 12:58:05;;;;;;;4.28;1.25;;;;;;;;;;4976490;28;20404;-75
2022/01/18 13:00:42;;;;;;;6.90;1.50;;;;;;;;;;4972681;28;20059;-75
2022/01/18 13:03:08;;;;;;;8.90;1.25;;;;;;;;;;4971546;28;20061;-75
2022/01/18 13:05:41;;;;;;;2.45;1.08;;;;;;;;;;4971196;28;20089;-75
2022/01/18 13:08:08;;;;;;;4.18;1.27;;;;;;;;;;4972584;28;20053;-75
2022/01/18 13:10:39;;;;;;;3.88;1.08;;;;;;;;;;4972859;28;20050;-75
2022/01/18 13:13:06;;;;;;;3.35;0.95;;;;;;;;;;4973955;28;20050;-75
2022/01/18 13:15:48;;;;;;;4.13;1.42;;;;;;;;;;4991582;28;20160;-75
2022/01/18 13:23:58;;;;;;;5.15;1.27;;;;;;;;;;4991717;28;20050;-76
2022/01/18 13:26:28;;;;;;;4.70;1.20;;;;;;;;;;4991582;28;20161;-75
2022/01/18 13:28:54;;;;;;;5.03;1.38;;;;;;;;;;4972944;28;20476;-76
2022/01/18 13:31:22;;;;;;;4.72;1.40;;;;;;;;;;4972156;28;20043;-75
2022/01/18 13:33:56;;;;;;;4.22;1.30;;;;;;;;;;4970772;28;20105;-75
2022/01/18 13:36:22;;;;;;;4.45;1.30;;;;;;;;;;4971383;28;20058;-75
2022/01/18 13:38:49;;;;;;;5.55;1.77;;;;;;;;;;4972144;28;20089;-76
2022/01/18 13:41:18;;;;;;;5.60;1.73;;;;;;;;;;4954869;28;20053;-77
2022/01/18 13:43:47;;;;;;;3.80;1.00;;;;;;;;;;4970156;28;20105;-75
2022/01/18 13:46:21;;;;;;;6.60;1.65;;;;;;;;;;4971572;28;20046;-76
2022/01/18 13:48:48;;;;;;;4.93;1.20;;;;;;;;;;4969918;28;20061;-74
2022/01/18 13:51:14;;;;;;;4.43;1.38;;;;;;;;;;4971330;28;20043;-75
2022/01/18 13:53:41;;;;;;;2.80;0.90;;;;;;;;;;4971597;28;20417;-74
2022/01/18 13:56:11;;;;;;;5.20;1.60;;;;;;;;;;4971258;28;20078;-74
2022/01/18 13:58:40;;;;;;;3.92;1.08;;;;;;;;;;4952298;28;20155;-74
2022/01/18 14:01:06;;;;;;;4.05;1.50;;;;;;;;;;4953105;28;20058;-73
2022/01/18 14:03:34;;;;;;;5.68;1.27;;;;;;;;;;4971270;28;20043;-73
2022/01/18 14:06:00;;;;;;;3.13;1.48;;;;;;;;;;4971570;28;20047;-73
2022/01/18 14:08:37;;;;;;;3.80;1.33;;;;;;;;;;4969676;28;20061;-73
2022/01/18 14:11:10;;;;;;;4.20;1.40;;;;;;;;;;4953612;28;20047;-74
2022/01/18 14:13:38;;;;;;;4.50;1.23;;;;;;;;;;4969640;28;20519;-73
2022/01/18 14:16:20;;;;;;;5.43;1.70;;;;;;;;;;4970829;28;20461;-71
2022/01/18 14:18:50;;;;;;;5.72;1.58;;;;;;;;;;4970864;28;20244;-72
2022/01/18 14:21:28;;;;;;;11.55;1.73;;;;;;;;;;4955029;28;20064;-73
2022/01/18 14:24:13;;;;;;;6.00;1.48;;;;;;;;;;4966110;28;20049;-72
2022/01/18 14:26:59;;;;;;;5.22;1.70;;;;;;;;;;4969360;28;20493;-76
2022/01/18 14:29:31;;;;;;;5.47;1.42;;;;;;;;;;4970014;28;20046;-76
2022/01/18 14:32:00;;;;;;;3.03;1.10;;;;;;;;;;4970071;28;20039;-75
2022/01/18 14:34:27;;;;;;;4.68;1.30;;;;;;;;;;4970307;28;20101;-76
2022/01/18 14:36:55;;;;;;;4.38;1.50;;;;;;;;;;4970274;28;20038;-74
2022/01/18 14:39:21;;;;;;;4.78;1.55;;;;;;;;;;4970196;28;20053;-73
2022/01/18 14:41:50;;;;;;;3.60;1.33;;;;;;;;;;4969429;28;20137;-72
2022/01/18 14:44:25;;;;;;;4.33;1.30;;;;;;;;;;4970150;28;20461;-72
2022/01/18 14:47:24;;;;;;;3.17;1.30;;;;;;;;;;4970869;28;20059;-72
2022/01/18 14:49:43;;;;;;;3.80;1.25;;;;;;;;;;4969351;28;20137;-72
2022/01/18 14:52:09;;;;;;;4.05;1.20;;;;;;;;;;4969685;28;20571;-72
2022/01/18 14:54:35;;;;;;;3.20;1.00;;;;;;;;;;4970540;28;20101;-72
2022/01/18 14:57:01;;;;;;;5.43;1.48;;;;;;;;;;4970636;28;20064;-72
2022/01/18 14:59:27;;;;;;;4.13;1.20;;;;;;;;;;4970074;28;20043;-72
2022/01/18 15:01:53;;;;;;;4.53;1.40;;;;;;;;;;4968733;28;20141;-72
2022/01/18 15:04:21;;;;;;;4.25;1.45;;;;;;;;;;4970375;28;20405;-72
2022/01/18 15:06:47;;;;;;;3.40;1.13;;;;;;;;;;4970398;28;20473;-72
2022/01/18 15:09:13;;;;;;;4.75;1.35;;;;;;;;;;4952986;28;20258;-72
2022/01/18 15:11:39;;;;;;;3.90;1.27;;;;;;;;;;4970346;28;20130;-72
2022/01/18 15:14:05;;;;;;;3.72;1.30;;;;;;;;;;4969541;28;20588;-73
2022/01/18 15:16:31;;;;;;;3.67;1.00;;;;;;;;;;4960896;28;20133;-74
2022/01/18 15:18:57;;;;;;;3.38;1.05;;;;;;;;;;4965463;28;20497;-74
2022/01/18 15:21:24;;;;;;;4.32;1.30;;;;;;;;;;4958692;28;20425;-73
2022/01/18 15:23:51;;;;;;;4.55;1.27;;;;;;;;;;4967692;28;20742;-73
2022/01/18 15:26:17;;;;;;;3.90;1.20;;;;;;;;;;4968160;28;20053;-73
2022/01/18 15:28:43;;;;;;;4.15;1.40;;;;;;;;;;4969789;28;20655;-73
2022/01/18 15:31:09;;;;;;;3.00;1.13;;;;;;;;;;4967758;28;20051;-74
2022/01/18 15:33:35;;;;;;;4.50;1.30;;;;;;;;;;4968041;28;20149;-74
2022/01/18 15:36:01;;;;;;;2.70;0.95;;;;;;;;;;4966641;28;20772;-74
2022/01/18 15:38:28;;;;;;;4.15;1.30;;;;;;;;;;4967583;28;20489;-74
2022/01/18 15:40:54;;;;;;;4.18;1.58;;;;;;;;;;4968717;28;20047;-74
2022/01/18 15:43:20;;;;;;;3.70;1.23;;;;;;;;;;4967822;28;20046;-74
2022/01/18 15:45:47;;;;;;;3.53;1.40;;;;;;;;;;4967087;28;20047;-74
2022/01/18 15:48:14;;;;;;;3.75;1.65;;;;;;;;;;4967581;28;20122;-73
2022/01/18 15:50:40;;;;;;;4.32;1.40;;;;;;;;;;4967746;28;20039;-72
2022/01/18 15:53:06;;;;;;;3.97;1.30;;;;;;;;;;4968458;28;20421;-71
2022/01/18 15:55:32;;;;;;;4.28;1.75;;;;;;;;;;4967848;28;20062;-72
2022/01/18 15:58:01;;;;;;;4.38;1.40;;;;;;;;;;4966394;28;20472;-72
2022/01/18 16:00:27;;;;;;;4.23;1.67;;;;;;;;;;4963925;28;20046;-72
2022/01/18 16:02:53;;;;;;;4.90;1.42;;;;;;;;;;4966535;28;20812;-72
2022/01/18 16:05:19;;;;;;;5.88;1.40;;;;;;;;;;4966039;28;20042;-71
2022/01/18 16:07:45;;;;;;;3.72;1.70;;;;;;;;;;4967576;28;20061;-74
2022/01/18 16:10:11;;;;;;;4.97;1.80;;;;;;;;;;4967222;28;20479;-73
2022/01/18 16:12:37;;;;;;;5.57;1.70;;;;;;;;;;4968884;28;20127;-72
2022/01/18 16:15:04;;;;;;;5.57;2.28;;;;;;;;;;4967996;28;20066;-73
2022/01/18 16:17:30;;;;;;;5.60;2.10;;;;;;;;;;4967603;28;20054;-71
2022/01/18 16:19:56;;;;;;;9.60;3.28;;;;;;;;;;4967093;28;20410;-69